Flight Track Log - Related Links

Times and Time Zones

All times are in EDT time to prevent confusion due to time zone crossing. See the DKT84 flight status page for this flight to view local times or setup timezone preferences in your user account.

Time Position Orientation Groundspeed Altitude Reporting Facility
EDT Latitude Longitude Course Direction KTS MPH feet Rate Location/Type
Thu 08:18:12 PM 46.6922 -100.6439 136° Southeast 162 186 6,400  Level Minneapolis Center
Thu 08:19:15 PM 46.6567 -100.5975 138° Southeast 167 192 8,200 1,680 Climbing Minneapolis Center
Thu 08:20:17 PM 46.6214 -100.5492 137° Southeast 171 197 9,900 1,452 Climbing Minneapolis Center
Thu 08:21:19 PM 46.5897 -100.4936 130° Southeast 188 216 11,200 1,210 Climbing Minneapolis Center
Thu 08:22:00 PM 46.4840 -100.3565 135° Southeast  Level Estimated
Thu 08:22:21 PM 46.5517 -100.4431 138° Southeast 187 215 12,400  Level Minneapolis Center
Thu 08:23:00 PM 46.4366 -100.2906 136° Southeast  Level FlightAware Approximate
Thu 08:23:23 PM 46.5058 -100.3794 136° Southeast 188 216 13,700  Level Minneapolis Center
Thu 08:24:25 PM 46.4669 -100.3267 137° Southeast 192 221 15,200 1,210 Climbing Minneapolis Center
Thu 08:25:27 PM 46.4272 -100.2733 137° Southeast 193 222 16,200 871 Climbing Minneapolis Center
Thu 08:26:29 PM 46.3842 -100.2206 140° Southeast 199 229 17,000 387 Climbing Minneapolis Center
Thu 08:27:31 PM 46.3361 -100.1608 139° Southeast 215 247 17,000  Level Minneapolis Center
Thu 08:28:33 PM 46.2833 -100.0936 139° Southeast 242 278 17,000  Level Minneapolis Center
Thu 08:29:35 PM 46.2319 -100.0236 137° Southeast 250 288 17,000 48 Level Minneapolis Center
Thu 08:30:37 PM 46.1706 -99.9353 135° Southeast 257 296 17,100  Climbing Minneapolis Center
Thu 08:31:39 PM 46.1183 -99.8614 136° Southeast 261 300 17,000 -48 Descending Minneapolis Center
Thu 08:32:41 PM 46.0669 -99.7867 135° Southeast 262 302 17,000  Level Minneapolis Center
Thu 08:33:43 PM 46.0153 -99.7122 135° Southeast 262 302 17,000 48 Level Minneapolis Center
Thu 08:34:46 PM 45.9631 -99.6350 134° Southeast 265 305 17,100 48 Climbing Minneapolis Center
Thu 08:35:48 PM 45.9108 -99.5608 135° Southeast 264 304 17,100 48 Level Minneapolis Center
Thu 08:36:50 PM 45.8442 -99.4778 139° Southeast 264 304 17,200  Climbing Minneapolis Center
Thu 08:37:52 PM 45.7889 -99.4111 140° Southeast 262 302 17,100 -48 Descending Minneapolis Center
Thu 08:38:54 PM 45.7342 -99.3414 138° Southeast 262 302 17,100 -97 Level Minneapolis Center
Thu 08:39:56 PM 45.6794 -99.2714 138° Southeast 263 303 16,900 -48 Descending Minneapolis Center
Thu 08:40:58 PM 45.6239 -99.2014 139° Southeast 264 304 17,000  Climbing Minneapolis Center
Thu 08:42:00 PM 45.5683 -99.1328 139° Southeast 264 304 16,900 -48 Descending Minneapolis Center
Thu 08:43:02 PM 45.5139 -99.0647 139° Southeast 262 302 16,900  Level Minneapolis Center
Thu 08:44:04 PM 45.4475 -98.9847 140° Southeast 260 299 16,900 48 Level Minneapolis Center
Thu 08:45:06 PM 45.3917 -98.9183 140° Southeast 260 299 17,000  Climbing Minneapolis Center
Thu 08:46:08 PM 45.3369 -98.8486 138° Southeast 262 302 16,900 -48 Descending Minneapolis Center
Thu 08:47:10 PM 45.2833 -98.7797 138° Southeast 261 300 16,900  Level Minneapolis Center
Thu 08:48:13 PM 45.2286 -98.7103 138° Southeast 262 302 16,900  Level Minneapolis Center
Thu 08:49:15 PM 45.1747 -98.6394 137° Southeast 263 303 16,900  Level Minneapolis Center
Thu 08:50:17 PM 45.1228 -98.5683 136° Southeast 261 300 16,900  Level Minneapolis Center
Thu 08:51:19 PM 45.0578 -98.4839 137° Southeast 262 302 16,900  Level Minneapolis Center
Thu 08:52:21 PM 45.0025 -98.4164 139° Southeast 262 302 16,900  Level Minneapolis Center
Thu 08:53:23 PM 44.9511 -98.3542 139° Southeast 262 302 16,900 48 Level Minneapolis Center
Thu 08:54:25 PM 44.8950 -98.2856 139° Southeast 265 305 17,000  Climbing Minneapolis Center
Thu 08:55:27 PM 44.8289 -98.2039 139° Southeast 265 305 16,900  Descending Minneapolis Center
Thu 08:56:29 PM 44.7747 -98.1344 138° Southeast 265 305 17,000 48 Climbing Minneapolis Center
Thu 08:57:31 PM 44.7200 -98.0639 137° Southeast 266 306 17,000  Level Minneapolis Center
Thu 08:58:33 PM 44.6661 -97.9936 137° Southeast 266 306 17,000 -48 Level Minneapolis Center
Thu 08:59:35 PM 44.6097 -97.9256 139° Southeast 267 307 16,900 -48 Descending Minneapolis Center
Thu 09:00:37 PM 44.5400 -97.8461 141° Southeast 269 310 16,900 -290 Level Minneapolis Center
Thu 09:01:39 PM 44.4847 -97.7781 139° Southeast 267 307 16,300 -823 Descending Minneapolis Center
Thu 09:02:41 PM 44.4250 -97.7053 139° Southeast 278 320 15,200 -1,016 Descending Minneapolis Center
Thu 09:03:43 PM 44.3633 -97.6333 140° Southeast 286 329 14,200 -1,104 Descending Minneapolis Center
Thu 09:04:46 PM 44.3025 -97.5603 139° Southeast 288 331 12,900 -1,536 Descending Minneapolis Center
Thu 09:05:48 PM 44.2422 -97.4861 139° Southeast 290 334 11,000 -2,323 Descending Minneapolis Center
Thu 09:06:50 PM 44.1700 -97.3928 137° Southeast 295 339 8,100 -1,935 Descending Minneapolis Center
Thu 09:07:52 PM 44.1153 -97.3203 136° Southeast 287 330 7,000 -871 Descending Minneapolis Center
Thu 09:08:54 PM 44.0611 -97.2525 138° Southeast 276 318 6,300 -339 Descending Minneapolis Center
Thu 09:09:56 PM 44.0033 -97.1828 139° Southeast 274 315 6,300 -97 Level Minneapolis Center
Thu 09:10:58 PM 43.9444 -97.1128 139° Southeast 276 318 6,100 -97 Descending Minneapolis Center
Thu 09:12:00 PM 43.8764 -97.0308 139° Southeast 274 315 6,100 -48 Level Minneapolis Center
Thu 09:13:02 PM 43.8208 -96.9631 139° Southeast 273 314 6,000 -48 Descending Minneapolis Center
Thu 09:14:04 PM 43.8147 -96.8911 97° East 225 259 6,000 -97 Level Minneapolis Center
Thu 09:15:06 PM 43.7719 -96.8547 148° Southeast 197 227 5,800 -532 Descending Minneapolis Center
Thu 09:16:08 PM 43.7258 -96.8247 155° Southeast 189 217 4,900 -823 Descending Minneapolis Center
Thu 09:17:10 PM 43.6842 -96.8011 158° South 178 205 4,100 -1,016 Descending Minneapolis Center
Thu 09:18:12 PM 43.6433 -96.7747 155° Southeast 157 181 2,800 -968 Descending Minneapolis Center
Thu 09:19:14 PM 43.6125 -96.7575 158° South 140 161 2,100 -435 Descending Minneapolis Center
Thu 09:20:16 PM 43.5861 -96.7417 157° South 133 153 1,900 -194 Descending Minneapolis Center
Thu 09:22:00 PM 43.5820 -96.7419 180° South  Level Estimated

Login

Don't have an account? Register now (free) for customized features, flight alerts, and more!